createdAt,value
2023-03-06T00:02:25.040Z,3.20
2023-03-06T00:04:53.307Z,3.20
2023-03-06T00:07:20.637Z,3.13
2023-03-06T00:09:47.887Z,3.33
2023-03-06T00:12:15.159Z,3.70
2023-03-06T00:14:42.402Z,3.30
2023-03-06T00:17:09.660Z,3.40
2023-03-06T00:19:36.870Z,3.33
2023-03-06T00:22:04.363Z,3.70
2023-03-06T00:24:31.636Z,3.33
2023-03-06T00:26:59.049Z,3.20
2023-03-06T00:29:26.683Z,3.73
2023-03-06T00:31:54.000Z,3.23
2023-03-06T00:34:21.241Z,3.63
2023-03-06T00:36:48.486Z,3.30
2023-03-06T00:39:15.845Z,3.60
2023-03-06T00:41:44.915Z,3.40
2023-03-06T00:44:14.052Z,4.03
2023-03-06T00:46:41.287Z,4.07
2023-03-06T00:49:08.527Z,4.03
2023-03-06T00:51:35.725Z,3.50
2023-03-06T00:54:03.007Z,3.53
2023-03-06T00:56:30.295Z,3.97
2023-03-06T00:58:57.562Z,3.60
2023-03-06T01:01:25.921Z,3.80
2023-03-06T01:03:53.117Z,3.70
2023-03-06T01:06:21.605Z,3.70
2023-03-06T01:08:48.877Z,3.90
2023-03-06T01:11:16.088Z,3.90
2023-03-06T01:13:45.050Z,4.10
2023-03-06T01:16:15.073Z,4.00
2023-03-06T01:18:42.732Z,4.00
2023-03-06T01:21:10.080Z,4.13
2023-03-06T01:23:37.498Z,4.10
2023-03-06T01:26:04.781Z,3.93
2023-03-06T01:28:33.963Z,4.13
2023-03-06T01:31:02.906Z,3.77
2023-03-06T01:33:30.166Z,3.67
2023-03-06T01:35:57.659Z,4.13
2023-03-06T01:38:24.935Z,4.20
2023-03-06T01:40:52.336Z,4.27
2023-03-06T01:43:28.771Z,4.73
2023-03-06T01:46:14.485Z,4.37
2023-03-06T01:48:41.843Z,4.50
2023-03-06T01:51:09.105Z,4.17
2023-03-06T01:53:36.656Z,4.10
2023-03-06T01:56:03.973Z,3.97
2023-03-06T01:58:31.692Z,4.67
2023-03-06T02:00:58.934Z,4.40
2023-03-06T02:03:27.312Z,4.40
2023-03-06T02:05:54.967Z,4.57
2023-03-06T02:08:23.847Z,4.60
2023-03-06T02:11:09.586Z,4.20
2023-03-06T02:13:37.792Z,4.60
2023-03-06T02:16:05.077Z,5.07
2023-03-06T02:18:33.437Z,4.33
2023-03-06T02:21:03.431Z,4.70
2023-03-06T02:23:49.765Z,4.80
2023-03-06T02:26:18.480Z,4.60
2023-03-06T02:28:46.471Z,4.50
2023-03-06T02:31:21.264Z,4.70
2023-03-06T02:34:00.823Z,4.30
2023-03-06T02:36:29.845Z,5.10
2023-03-06T02:38:57.896Z,4.73
2023-03-06T02:41:25.662Z,4.87
2023-03-06T02:43:53.834Z,4.80
2023-03-06T02:46:21.224Z,5.03
2023-03-06T02:48:48.610Z,5.00
2023-03-06T02:51:15.826Z,4.87
2023-03-06T02:53:44.068Z,4.90
2023-03-06T02:56:11.342Z,4.97
2023-03-06T02:58:38.661Z,4.70
2023-03-06T03:01:06.241Z,4.77
2023-03-06T03:03:34.645Z,4.37
2023-03-06T03:06:02.133Z,4.67
2023-03-06T03:08:33.023Z,4.60
2023-03-06T03:11:03.199Z,4.87
2023-03-06T03:13:37.680Z,4.97
2023-03-06T03:16:07.606Z,5.03
2023-03-06T03:18:35.344Z,5.00
2023-03-06T03:21:03.427Z,5.33
2023-03-06T03:23:30.686Z,5.30
2023-03-06T03:26:06.639Z,4.93
2023-03-06T03:28:34.301Z,5.63
2023-03-06T03:31:09.012Z,5.50
2023-03-06T03:33:36.760Z,5.37
2023-03-06T03:36:05.414Z,5.40
2023-03-06T03:38:35.003Z,5.00
2023-03-06T03:41:02.830Z,5.43
2023-03-06T03:43:30.979Z,5.23
2023-03-06T03:45:59.360Z,5.70
2023-03-06T03:48:26.900Z,5.20
2023-03-06T03:50:54.386Z,5.57
2023-03-06T03:53:24.478Z,5.07
2023-03-06T03:55:51.812Z,6.30
2023-03-06T03:58:21.273Z,4.90
2023-03-06T04:00:50.118Z,6.00
2023-03-06T04:03:17.508Z,5.80
2023-03-06T04:05:46.200Z,5.33
2023-03-06T04:08:16.361Z,5.67
2023-03-06T04:10:46.242Z,5.50
2023-03-06T04:13:15.634Z,5.33
2023-03-06T04:15:45.621Z,5.77
2023-03-06T04:18:12.958Z,4.93
2023-03-06T04:20:41.073Z,5.50
2023-03-06T04:23:08.421Z,6.00
2023-03-06T04:25:35.678Z,5.70
2023-03-06T04:28:05.733Z,5.73
2023-03-06T04:30:33.580Z,5.90
2023-03-06T04:33:00.893Z,5.10
2023-03-06T04:35:28.808Z,5.20
2023-03-06T04:38:03.451Z,5.43
2023-03-06T04:40:32.335Z,5.70
2023-03-06T04:43:00.484Z,5.73
2023-03-06T04:45:28.141Z,6.10
2023-03-06T04:47:55.760Z,6.20
2023-03-06T04:50:23.960Z,5.50
2023-03-06T04:52:51.632Z,5.90
2023-03-06T04:55:18.957Z,5.70
2023-03-06T04:57:47.703Z,5.93
2023-03-06T05:00:19.325Z,5.87
2023-03-06T05:02:46.916Z,5.87
2023-03-06T05:05:14.894Z,5.53
2023-03-06T05:07:42.521Z,5.60
2023-03-06T05:10:13.842Z,5.70
2023-03-06T05:12:41.258Z,5.27
2023-03-06T05:15:09.282Z,5.67
2023-03-06T05:17:36.530Z,6.27
2023-03-06T05:20:06.258Z,6.20
2023-03-06T05:22:34.789Z,5.63
2023-03-06T05:25:02.071Z,11.23
2023-03-06T05:27:29.570Z,6.07
2023-03-06T05:30:05.790Z,5.90
2023-03-06T05:32:35.579Z,5.67
2023-03-06T05:35:03.100Z,5.73
2023-03-06T05:37:30.335Z,6.00
2023-03-06T05:39:57.894Z,6.10
2023-03-06T05:42:26.824Z,6.40
2023-03-06T05:44:55.510Z,5.50
2023-03-06T05:47:22.874Z,5.93
2023-03-06T05:49:50.184Z,5.87
2023-03-06T05:52:17.608Z,6.00
2023-03-06T05:54:45.377Z,7.07
2023-03-06T05:57:12.680Z,6.20
2023-03-06T05:59:39.943Z,6.27
2023-03-06T06:02:08.018Z,5.93
2023-03-06T06:04:35.293Z,5.93
2023-03-06T06:07:02.638Z,6.70
2023-03-06T06:09:30.253Z,6.10
2023-03-06T06:11:58.976Z,6.67
2023-03-06T06:14:26.465Z,17.70
2023-03-06T06:16:54.082Z,8.07
2023-03-06T06:19:21.716Z,7.30
2023-03-06T06:21:50.133Z,6.60
2023-03-06T06:24:18.270Z,6.60
2023-03-06T06:26:46.036Z,6.70
2023-03-06T06:29:13.852Z,6.63
2023-03-06T06:31:41.604Z,6.33
2023-03-06T06:34:09.278Z,6.77
2023-03-06T06:36:36.681Z,7.10
2023-03-06T06:39:23.929Z,7.57
2023-03-06T06:42:09.690Z,6.33
2023-03-06T06:44:40.533Z,7.00
2023-03-06T06:47:25.067Z,7.43
2023-03-06T06:49:53.311Z,7.07
2023-03-06T06:52:20.667Z,7.37
2023-03-06T06:54:48.049Z,6.43
2023-03-06T06:57:15.565Z,7.00
2023-03-06T06:59:42.985Z,6.60
2023-03-06T07:02:12.568Z,7.03
2023-03-06T07:04:52.322Z,7.30
2023-03-06T07:07:25.497Z,7.30
2023-03-06T07:09:54.060Z,7.10
2023-03-06T07:12:21.426Z,7.17
2023-03-06T07:14:48.867Z,7.50
2023-03-06T07:17:16.295Z,6.87
2023-03-06T07:19:43.578Z,7.40
2023-03-06T07:22:10.891Z,7.07
2023-03-06T07:24:38.218Z,7.07
2023-03-06T07:27:05.546Z,7.10
2023-03-06T07:29:34.562Z,6.87
2023-03-06T07:32:02.365Z,6.67
2023-03-06T07:34:29.847Z,6.53
2023-03-06T07:36:57.240Z,6.87
2023-03-06T07:39:24.725Z,7.33
2023-03-06T07:41:52.412Z,7.00
2023-03-06T07:44:19.881Z,7.50
2023-03-06T07:46:47.325Z,6.77
2023-03-06T07:49:15.748Z,6.53
2023-03-06T07:51:43.155Z,6.93
2023-03-06T07:54:10.508Z,6.77
2023-03-06T07:56:37.768Z,6.80
2023-03-06T07:59:05.279Z,7.33
2023-03-06T08:01:33.128Z,6.97
2023-03-06T08:04:02.026Z,7.50
2023-03-06T08:06:29.563Z,7.00
2023-03-06T08:08:57.413Z,7.20
2023-03-06T08:11:25.859Z,6.40
2023-03-06T08:13:53.708Z,7.07
2023-03-06T08:16:25.397Z,7.10
2023-03-06T08:18:52.820Z,7.00
2023-03-06T08:24:09.222Z,7.10
2023-03-06T08:26:36.698Z,7.30
2023-03-06T08:29:05.353Z,8.07
2023-03-06T08:31:32.699Z,8.60
2023-03-06T08:34:01.883Z,7.73
2023-03-06T08:36:29.362Z,7.03
2023-03-06T08:38:56.801Z,7.03
2023-03-06T08:41:24.385Z,6.70
2023-03-06T08:43:51.908Z,7.47
2023-03-06T08:46:20.033Z,7.17
2023-03-06T08:48:48.229Z,6.83
2023-03-06T08:51:16.005Z,12.93
2023-03-06T08:53:44.275Z,10.27
2023-03-06T08:56:31.668Z,7.40
2023-03-06T08:58:59.942Z,7.57
2023-03-06T09:01:31.918Z,6.57
2023-03-06T09:04:00.890Z,7.10
2023-03-06T09:06:30.851Z,7.50
2023-03-06T09:08:58.095Z,7.23
2023-03-06T09:11:26.256Z,7.30
2023-03-06T09:13:53.612Z,7.50
2023-03-06T09:16:20.951Z,7.67
2023-03-06T09:18:50.894Z,6.63
2023-03-06T09:21:18.168Z,7.83
2023-03-06T09:23:45.946Z,7.37
2023-03-06T09:26:13.467Z,7.00
2023-03-06T09:28:40.873Z,7.47
2023-03-06T09:31:26.882Z,7.40
2023-03-06T09:33:54.183Z,7.80
2023-03-06T09:36:22.855Z,7.10
2023-03-06T09:38:50.544Z,8.13
2023-03-06T09:41:29.784Z,7.87
2023-03-06T09:44:04.754Z,7.73
2023-03-06T09:46:38.988Z,7.97
2023-03-06T09:49:18.250Z,8.63
2023-03-06T09:51:59.016Z,7.60
2023-03-06T09:54:34.673Z,7.73
2023-03-06T09:57:01.989Z,8.20
2023-03-06T09:59:29.292Z,8.83
2023-03-06T10:02:02.175Z,7.33
2023-03-06T10:04:33.121Z,8.03
2023-03-06T10:07:02.036Z,8.20
2023-03-06T10:09:52.311Z,8.23
2023-03-06T10:12:24.745Z,8.33
2023-03-06T10:15:10.895Z,8.17
2023-03-06T10:17:41.502Z,8.63
2023-03-06T10:20:25.624Z,6.93
2023-03-06T10:23:01.362Z,7.60
2023-03-06T10:25:33.875Z,8.07
2023-03-06T10:28:17.894Z,8.23
2023-03-06T10:30:45.155Z,7.70
2023-03-06T10:33:27.662Z,8.33
2023-03-06T10:35:56.847Z,8.87
2023-03-06T10:38:37.310Z,8.30
2023-03-06T10:41:04.567Z,9.13
2023-03-06T10:43:33.484Z,8.97
2023-03-06T10:46:21.688Z,8.53
2023-03-06T10:48:57.952Z,9.37
2023-03-06T10:51:25.943Z,8.87
2023-03-06T10:54:00.861Z,9.73
2023-03-06T10:56:28.445Z,8.53
2023-03-06T10:59:09.669Z,9.50
2023-03-06T11:01:37.448Z,9.27
2023-03-06T11:04:17.151Z,9.87
2023-03-06T11:06:45.021Z,9.63
2023-03-06T11:09:23.403Z,8.63
2023-03-06T11:11:51.088Z,9.17
2023-03-06T11:14:19.856Z,9.53
2023-03-06T11:16:54.283Z,9.53
2023-03-06T11:19:24.525Z,9.77
2023-03-06T11:22:05.293Z,9.63
2023-03-06T11:24:41.927Z,9.40
2023-03-06T11:27:18.579Z,9.83
2023-03-06T11:29:48.013Z,10.07
2023-03-06T11:32:17.309Z,9.53
2023-03-06T11:35:03.768Z,10.53
2023-03-06T11:37:31.278Z,10.47
2023-03-06T11:40:01.674Z,11.27
2023-03-06T11:42:30.512Z,11.33
2023-03-06T11:45:16.592Z,11.33
2023-03-06T11:47:50.465Z,10.70
2023-03-06T11:50:23.783Z,11.50
2023-03-06T11:52:56.574Z,10.57
2023-03-06T11:55:42.789Z,11.23
2023-03-06T11:58:23.489Z,11.80
2023-03-06T12:00:59.736Z,11.17
2023-03-06T12:03:34.692Z,11.23
2023-03-06T12:06:05.399Z,10.23
2023-03-06T12:08:32.707Z,11.20
2023-03-06T12:11:06.401Z,10.97
2023-03-06T12:16:38.594Z,11.10
2023-03-06T12:19:11.969Z,10.70
2023-03-06T12:21:52.033Z,10.07
2023-03-06T12:24:23.236Z,11.70
2023-03-06T12:27:10.057Z,10.70
2023-03-06T12:29:37.300Z,10.73
2023-03-06T12:32:16.893Z,11.07
2023-03-06T12:35:05.542Z,10.80
2023-03-06T12:37:42.150Z,10.30
2023-03-06T12:40:22.470Z,9.93
2023-03-06T12:43:10.219Z,10.70
2023-03-06T12:48:23.884Z,10.00
2023-03-06T12:50:51.726Z,8.70
2023-03-06T12:53:24.110Z,9.93
2023-03-06T12:55:52.051Z,10.00
2023-03-06T12:58:31.444Z,10.00
2023-03-06T13:01:06.018Z,10.07
2023-03-06T13:04:08.953Z,9.83
2023-03-06T13:06:50.872Z,10.03
2023-03-06T13:09:21.144Z,9.43
2023-03-06T13:11:48.696Z,8.47
2023-03-06T13:14:25.490Z,9.30
2023-03-06T13:16:53.738Z,8.90
2023-03-06T13:19:22.985Z,9.50
2023-03-06T13:21:56.833Z,9.20
2023-03-06T13:24:25.886Z,9.30
2023-03-06T13:26:58.967Z,10.47
2023-03-06T13:29:38.299Z,10.40
2023-03-06T13:32:20.261Z,11.23
2023-03-06T13:34:50.038Z,11.20
2023-03-06T13:37:17.425Z,9.83
2023-03-06T13:39:57.233Z,10.80
2023-03-06T13:42:38.008Z,11.20
2023-03-06T13:45:28.358Z,9.93
2023-03-06T13:48:21.436Z,10.10
2023-03-06T13:50:45.779Z,10.80
2023-03-06T13:53:31.431Z,11.10
2023-03-06T13:56:01.460Z,11.10
2023-03-06T13:58:34.927Z,11.50
2023-03-06T14:01:18.041Z,11.50
2023-03-06T14:04:04.209Z,18.47
2023-03-06T14:06:37.479Z,12.93
2023-03-06T14:09:12.558Z,14.63
2023-03-06T14:11:41.065Z,18.63
2023-03-06T14:14:11.314Z,12.87
2023-03-06T14:16:49.950Z,17.03
2023-03-06T14:19:18.191Z,13.20
2023-03-06T14:22:03.873Z,18.57
2023-03-06T14:24:36.109Z,11.80
2023-03-06T14:27:03.674Z,13.50
2023-03-06T14:29:33.494Z,13.17
2023-03-06T14:32:02.600Z,11.33
2023-03-06T14:34:31.664Z,10.17
2023-03-06T14:37:03.177Z,10.03
2023-03-06T14:39:34.944Z,11.50
2023-03-06T14:42:17.387Z,10.43
2023-03-06T14:44:44.860Z,11.30
2023-03-06T14:47:18.767Z,11.37
2023-03-06T14:49:46.024Z,11.10
2023-03-06T14:52:18.472Z,12.37
2023-03-06T14:54:46.297Z,10.73
2023-03-06T14:57:15.363Z,11.10
2023-03-06T14:59:45.221Z,9.70
2023-03-06T15:02:15.905Z,9.60
2023-03-06T15:04:45.828Z,10.37
2023-03-06T15:07:22.708Z,10.33
2023-03-06T15:09:51.738Z,9.13
2023-03-06T15:12:22.682Z,9.53
2023-03-06T15:15:00.617Z,9.23
2023-03-06T15:17:27.896Z,8.57
2023-03-06T15:19:56.734Z,8.47
2023-03-06T15:22:38.037Z,8.27
2023-03-06T15:25:08.791Z,7.50
2023-03-06T15:27:36.230Z,7.57
2023-03-06T15:30:12.588Z,7.47
2023-03-06T15:32:42.600Z,7.47
2023-03-06T15:35:25.285Z,8.27
2023-03-06T15:37:53.348Z,7.77
2023-03-06T15:40:22.295Z,7.37
2023-03-06T15:42:50.073Z,7.30
2023-03-06T15:45:19.524Z,7.50
2023-03-06T15:47:48.013Z,8.00
2023-03-06T15:50:20.526Z,6.80
2023-03-06T15:52:48.512Z,7.40
2023-03-06T15:55:17.413Z,6.83
2023-03-06T15:57:49.591Z,6.37
2023-03-06T16:00:36.804Z,7.23
2023-03-06T16:03:04.275Z,7.27
2023-03-06T16:05:31.630Z,6.70
2023-03-06T16:07:58.988Z,7.77
2023-03-06T16:10:28.009Z,6.83
2023-03-06T16:12:56.926Z,7.33
2023-03-06T16:15:28.824Z,7.83
2023-03-06T16:17:56.699Z,7.20
2023-03-06T16:20:25.553Z,7.33
2023-03-06T16:22:56.064Z,7.87
2023-03-06T16:25:24.091Z,8.90
2023-03-06T16:27:58.639Z,7.97
2023-03-06T16:30:29.274Z,9.33
2023-03-06T16:32:57.076Z,8.17
2023-03-06T16:35:24.723Z,8.13
2023-03-06T16:37:52.279Z,8.20
2023-03-06T16:40:19.721Z,9.07
2023-03-06T16:42:47.415Z,7.97
2023-03-06T16:45:15.417Z,7.50
2023-03-06T16:47:43.328Z,8.40
2023-03-06T16:50:21.784Z,9.00
2023-03-06T16:52:49.211Z,9.47
2023-03-06T16:55:16.498Z,8.50
2023-03-06T16:57:43.770Z,11.50
2023-03-06T17:00:11.460Z,7.90
2023-03-06T17:02:39.286Z,8.20
2023-03-06T17:05:07.540Z,7.30
2023-03-06T17:07:35.780Z,7.20
2023-03-06T17:10:03.493Z,6.97
2023-03-06T17:12:30.766Z,7.30
2023-03-06T17:14:58.065Z,7.33
2023-03-06T17:17:25.566Z,7.60
2023-03-06T17:19:53.421Z,7.97
2023-03-06T17:22:21.029Z,7.40
2023-03-06T17:24:50.039Z,7.80
2023-03-06T17:27:17.839Z,7.60
2023-03-06T17:29:45.544Z,7.50
2023-03-06T17:32:12.946Z,7.10
2023-03-06T17:34:40.201Z,7.80
2023-03-06T17:37:07.620Z,7.13
2023-03-06T17:39:35.683Z,7.70
2023-03-06T17:42:03.494Z,8.00
2023-03-06T17:44:31.653Z,7.57
2023-03-06T17:46:59.041Z,7.73
2023-03-06T17:49:26.325Z,7.83
2023-03-06T17:51:54.100Z,7.63
2023-03-06T17:54:21.587Z,7.30
2023-03-06T17:56:49.154Z,7.33
2023-03-06T17:59:16.466Z,19.17
2023-03-06T18:01:45.025Z,8.80
2023-03-06T18:04:12.461Z,8.17
2023-03-06T18:06:39.809Z,8.93
2023-03-06T18:09:07.783Z,8.07
2023-03-06T18:11:53.627Z,8.17
2023-03-06T18:14:20.965Z,7.60
2023-03-06T18:16:48.208Z,7.90
2023-03-06T18:19:16.510Z,8.40
2023-03-06T18:21:44.003Z,8.13
2023-03-06T18:24:12.381Z,8.53
2023-03-06T18:26:44.125Z,8.70
2023-03-06T18:29:11.546Z,7.80
2023-03-06T18:31:39.970Z,7.87
2023-03-06T18:34:12.329Z,8.10
2023-03-06T18:36:40.698Z,7.50
2023-03-06T18:39:09.629Z,7.77
2023-03-06T18:41:37.262Z,7.57
2023-03-06T18:44:05.015Z,7.40
2023-03-06T18:46:33.708Z,7.50
2023-03-06T18:49:01.018Z,7.10
2023-03-06T18:51:28.641Z,7.47
2023-03-06T18:54:02.808Z,8.17
2023-03-06T18:56:30.691Z,8.00
2023-03-06T18:59:01.428Z,7.50
2023-03-06T19:01:30.824Z,7.77
2023-03-06T19:04:02.202Z,7.87
2023-03-06T19:06:29.543Z,7.50
2023-03-06T19:09:01.630Z,7.60
2023-03-06T19:11:29.112Z,7.47
2023-03-06T19:13:56.364Z,8.43
2023-03-06T19:16:25.200Z,8.20
2023-03-06T19:18:55.153Z,8.07
2023-03-06T19:21:23.401Z,7.97
2023-03-06T19:23:50.729Z,8.47
2023-03-06T19:26:18.865Z,8.20
2023-03-06T19:28:47.171Z,8.07
2023-03-06T19:31:14.475Z,8.67
2023-03-06T19:33:42.084Z,9.33
2023-03-06T19:36:10.785Z,8.63
2023-03-06T19:38:38.243Z,8.23
2023-03-06T19:41:06.154Z,8.27
2023-03-06T19:43:33.439Z,8.93
2023-03-06T19:46:00.990Z,8.57
2023-03-06T19:48:28.251Z,8.37
2023-03-06T19:50:55.629Z,8.87
2023-03-06T19:53:23.205Z,8.40
2023-03-06T19:55:50.609Z,8.53
2023-03-06T19:58:17.879Z,8.10
2023-03-06T20:00:45.107Z,9.70
2023-03-06T20:03:12.351Z,9.10
2023-03-06T20:05:46.059Z,8.57
2023-03-06T20:08:13.343Z,8.57
2023-03-06T20:10:40.614Z,9.30
2023-03-06T20:13:07.881Z,8.50
2023-03-06T20:15:36.481Z,9.10
2023-03-06T20:18:04.089Z,9.37
2023-03-06T20:20:31.284Z,8.97
2023-03-06T20:23:04.466Z,8.80
2023-03-06T20:25:32.094Z,8.80
2023-03-06T20:27:59.606Z,8.67
2023-03-06T20:30:36.679Z,8.53
2023-03-06T20:33:05.674Z,8.40
2023-03-06T20:35:33.237Z,8.93
2023-03-06T20:38:01.033Z,8.50
2023-03-06T20:40:28.837Z,9.00
2023-03-06T20:42:56.276Z,9.50
2023-03-06T20:45:23.589Z,9.70
2023-03-06T20:47:50.813Z,9.53
2023-03-06T20:50:18.381Z,9.27
2023-03-06T20:52:45.771Z,10.07
2023-03-06T20:55:18.042Z,9.93
2023-03-06T20:57:47.570Z,9.30
2023-03-06T21:00:15.047Z,8.57
2023-03-06T21:02:42.516Z,9.63
2023-03-06T21:05:10.582Z,9.87
2023-03-06T21:07:38.137Z,9.90
2023-03-06T21:10:05.976Z,9.77
2023-03-06T21:12:33.589Z,9.80
2023-03-06T21:17:46.152Z,9.73
2023-03-06T21:20:13.623Z,9.93
2023-03-06T21:22:41.000Z,10.60
2023-03-06T21:25:08.361Z,9.53
2023-03-06T21:27:35.918Z,9.50
2023-03-06T21:30:03.743Z,10.13
2023-03-06T21:32:31.298Z,9.73
2023-03-06T21:34:58.894Z,10.03
2023-03-06T21:37:26.450Z,10.40
2023-03-06T21:39:54.264Z,10.37
2023-03-06T21:42:21.649Z,9.90
2023-03-06T21:44:48.956Z,10.40
2023-03-06T21:47:16.377Z,10.63
2023-03-06T21:49:43.704Z,10.43
2023-03-06T21:52:10.953Z,10.10
2023-03-06T21:54:38.241Z,10.60
2023-03-06T21:57:05.794Z,10.27
2023-03-06T21:59:33.113Z,10.03
2023-03-06T22:02:00.345Z,10.53
2023-03-06T22:04:27.590Z,10.93
2023-03-06T22:06:54.851Z,9.77
2023-03-06T22:09:22.446Z,10.93
2023-03-06T22:11:49.847Z,11.07
2023-03-06T22:14:17.263Z,10.90
2023-03-06T22:16:44.582Z,10.77
2023-03-06T22:19:11.888Z,10.83
2023-03-06T22:21:39.178Z,9.73
2023-03-06T22:24:06.713Z,10.60
2023-03-06T22:26:33.954Z,10.00
2023-03-06T22:29:01.292Z,10.67
2023-03-06T22:31:29.143Z,11.10
2023-03-06T22:33:57.413Z,10.27
2023-03-06T22:36:25.132Z,12.03
2023-03-06T22:38:57.611Z,11.00
2023-03-06T22:41:28.580Z,11.33
2023-03-06T22:43:57.478Z,10.50
2023-03-06T22:46:24.952Z,11.30
2023-03-06T22:48:52.333Z,10.87
2023-03-06T22:51:20.888Z,11.53
2023-03-06T22:53:48.671Z,10.47
2023-03-06T22:56:17.181Z,10.97
2023-03-06T22:58:44.971Z,10.67
2023-03-06T23:01:13.560Z,10.50
2023-03-06T23:03:42.245Z,10.97
2023-03-06T23:06:17.481Z,11.90
2023-03-06T23:08:46.021Z,10.97
2023-03-06T23:11:14.950Z,11.67
2023-03-06T23:14:01.372Z,10.80
2023-03-06T23:16:47.234Z,11.73
2023-03-06T23:19:33.244Z,10.70
2023-03-06T23:22:19.410Z,11.87
2023-03-06T23:25:06.061Z,10.87
2023-03-06T23:27:33.365Z,11.97
2023-03-06T23:30:00.636Z,11.17
2023-03-06T23:32:28.496Z,10.23
2023-03-06T23:34:55.789Z,10.80
2023-03-06T23:37:23.111Z,10.03
2023-03-06T23:39:50.492Z,10.60
2023-03-06T23:42:17.782Z,10.50
2023-03-06T23:44:45.114Z,11.30
2023-03-06T23:47:12.787Z,10.77
2023-03-06T23:49:40.061Z,10.33
2023-03-06T23:52:07.353Z,10.10
2023-03-06T23:54:35.740Z,10.97
2023-03-06T23:57:02.997Z,10.80
2023-03-06T23:59:33.262Z,10.87
